sensor_id;sensor_type;location;lat;lon;timestamp;pressure;altitude;pressure_sealevel;temperature;humidity
12172;BME280;6149;52.418;13.668;2022-11-18T00:01:05;99902.00;;;1.85;100.00
12172;BME280;6149;52.418;13.668;2022-11-18T00:03:33;99900.38;;;1.81;100.00
12172;BME280;6149;52.418;13.668;2022-11-18T00:05:59;99903.88;;;1.80;100.00
12172;BME280;6149;52.418;13.668;2022-11-18T00:08:26;99909.31;;;1.72;100.00
12172;BME280;6149;52.418;13.668;2022-11-18T00:10:53;99907.56;;;1.73;100.00
12172;BME280;6149;52.418;13.668;2022-11-18T00:13:21;99895.50;;;1.68;100.00
12172;BME280;6149;52.418;13.668;2022-11-18T00:16:07;99894.53;;;1.73;100.00
12172;BME280;6149;52.418;13.668;2022-11-18T00:18:35;99901.63;;;1.67;100.00
12172;BME280;6149;52.418;13.668;2022-11-18T00:21:02;99891.25;;;1.66;100.00
12172;BME280;6149;52.418;13.668;2022-11-18T00:23:29;99888.63;;;1.66;100.00
12172;BME280;6149;52.418;13.668;2022-11-18T00:26:01;99894.56;;;1.71;100.00
12172;BME280;6149;52.418;13.668;2022-11-18T00:28:30;99897.91;;;1.76;100.00
12172;BME280;6149;52.418;13.668;2022-11-18T00:31:00;99895.31;;;1.76;100.00
12172;BME280;6149;52.418;13.668;2022-11-18T00:33:28;99893.00;;;1.65;100.00
12172;BME280;6149;52.418;13.668;2022-11-18T00:35:54;99897.31;;;1.66;100.00
12172;BME280;6149;52.418;13.668;2022-11-18T00:38:21;99899.09;;;1.64;100.00
12172;BME280;6149;52.418;13.668;2022-11-18T00:40:48;99899.09;;;1.64;100.00
12172;BME280;6149;52.418;13.668;2022-11-18T00:43:14;99900.72;;;1.68;100.00
12172;BME280;6149;52.418;13.668;2022-11-18T00:45:42;99899.84;;;1.70;100.00
12172;BME280;6149;52.418;13.668;2022-11-18T00:48:09;99904.31;;;1.64;100.00
12172;BME280;6149;52.418;13.668;2022-11-18T00:50:35;99906.03;;;1.65;100.00
12172;BME280;6149;52.418;13.668;2022-11-18T00:53:02;99902.78;;;1.57;100.00
12172;BME280;6149;52.418;13.668;2022-11-18T00:55:28;99902.03;;;1.52;100.00
12172;BME280;6149;52.418;13.668;2022-11-18T00:57:55;99894.16;;;1.55;100.00
12172;BME280;6149;52.418;13.668;2022-11-18T01:00:22;99906.44;;;1.50;100.00
12172;BME280;6149;52.418;13.668;2022-11-18T01:02:50;99898.47;;;1.56;100.00
12172;BME280;6149;52.418;13.668;2022-11-18T01:05:17;99892.72;;;1.45;100.00
12172;BME280;6149;52.418;13.668;2022-11-18T01:07:44;99904.91;;;1.43;100.00
12172;BME280;6149;52.418;13.668;2022-11-18T01:10:11;99907.34;;;1.49;100.00
12172;BME280;6149;52.418;13.668;2022-11-18T01:12:38;99907.56;;;1.42;100.00
12172;BME280;6149;52.418;13.668;2022-11-18T01:15:21;99908.41;;;1.42;100.00
12172;BME280;6149;52.418;13.668;2022-11-18T01:17:49;99903.34;;;1.38;100.00
12172;BME280;6149;52.418;13.668;2022-11-18T01:20:16;99904.22;;;1.37;100.00
12172;BME280;6149;52.418;13.668;2022-11-18T01:22:43;99898.91;;;1.41;100.00
12172;BME280;6149;52.418;13.668;2022-11-18T01:25:10;99904.91;;;1.43;100.00
12172;BME280;6149;52.418;13.668;2022-11-18T01:27:37;99915.09;;;1.51;100.00
12172;BME280;6149;52.418;13.668;2022-11-18T01:30:05;99904.06;;;1.43;100.00
12172;BME280;6149;52.418;13.668;2022-11-18T01:32:33;99905.97;;;1.36;100.00
12172;BME280;6149;52.418;13.668;2022-11-18T01:35:01;99911.88;;;1.43;100.00
12172;BME280;6149;52.418;13.668;2022-11-18T01:37:27;99904.19;;;1.38;100.00
12172;BME280;6149;52.418;13.668;2022-11-18T01:39:54;99910.28;;;1.37;100.00
12172;BME280;6149;52.418;13.668;2022-11-18T01:42:20;99912.00;;;1.38;100.00
12172;BME280;6149;52.418;13.668;2022-11-18T01:45:00;99912.75;;;1.43;100.00
12172;BME280;6149;52.418;13.668;2022-11-18T01:47:39;99917.38;;;1.32;100.00
12172;BME280;6149;52.418;13.668;2022-11-18T01:50:09;99909.69;;;1.27;100.00
12172;BME280;6149;52.418;13.668;2022-11-18T01:52:38;99914.03;;;1.27;100.00
12172;BME280;6149;52.418;13.668;2022-11-18T01:55:10;99914.19;;;1.21;100.00
12172;BME280;6149;52.418;13.668;2022-11-18T01:57:39;99910.53;;;1.28;100.00
12172;BME280;6149;52.418;13.668;2022-11-18T02:00:07;99918.53;;;1.20;100.00
12172;BME280;6149;52.418;13.668;2022-11-18T02:02:36;99912.66;;;1.12;100.00
12172;BME280;6149;52.418;13.668;2022-11-18T02:05:05;99918.66;;;1.16;100.00
12172;BME280;6149;52.418;13.668;2022-11-18T02:07:38;99915.06;;;1.20;100.00
12172;BME280;6149;52.418;13.668;2022-11-18T02:10:06;99920.59;;;1.09;100.00
12172;BME280;6149;52.418;13.668;2022-11-18T02:12:36;99911.75;;;1.15;100.00
12172;BME280;6149;52.418;13.668;2022-11-18T02:15:03;99915.84;;;1.23;100.00
12172;BME280;6149;52.418;13.668;2022-11-18T02:17:37;99921.34;;;1.13;100.00
12172;BME280;6149;52.418;13.668;2022-11-18T02:20:29;99916.09;;;1.14;100.00
12172;BME280;6149;52.418;13.668;2022-11-18T02:26:53;99920.44;;;1.14;100.00
12172;BME280;6149;52.418;13.668;2022-11-18T02:29:42;99918.91;;;1.07;100.00
12172;BME280;6149;52.418;13.668;2022-11-18T02:32:12;99923.34;;;1.03;100.00
12172;BME280;6149;52.418;13.668;2022-11-18T02:34:47;99932.03;;;1.02;100.00
12172;BME280;6149;52.418;13.668;2022-11-18T02:37:20;99920.97;;;0.94;100.00
12172;BME280;6149;52.418;13.668;2022-11-18T02:39:53;99935.63;;;0.98;100.00
12172;BME280;6149;52.418;13.668;2022-11-18T02:42:26;99924.41;;;0.94;100.00
12172;BME280;6149;52.418;13.668;2022-11-18T02:45:00;99931.34;;;0.95;100.00
12172;BME280;6149;52.418;13.668;2022-11-18T02:47:31;99927.81;;;0.98;100.00
12172;BME280;6149;52.418;13.668;2022-11-18T02:50:05;99928.00;;;0.90;100.00
12172;BME280;6149;52.418;13.668;2022-11-18T02:52:35;99925.16;;;0.99;100.00
12172;BME280;6149;52.418;13.668;2022-11-18T02:55:07;99928.13;;;0.84;100.00
12172;BME280;6149;52.418;13.668;2022-11-18T02:57:36;99926.22;;;0.92;100.00
12172;BME280;6149;52.418;13.668;2022-11-18T03:00:06;99936.69;;;0.89;100.00
12172;BME280;6149;52.418;13.668;2022-11-18T03:02:40;99929.91;;;0.82;100.00
12172;BME280;6149;52.418;13.668;2022-11-18T03:05:09;99922.19;;;0.79;100.00
12172;BME280;6149;52.418;13.668;2022-11-18T03:07:41;99918.75;;;0.77;100.00
12172;BME280;6149;52.418;13.668;2022-11-18T03:10:12;99921.19;;;0.85;100.00
12172;BME280;6149;52.418;13.668;2022-11-18T03:12:42;99917.63;;;0.89;100.00
12172;BME280;6149;52.418;13.668;2022-11-18T03:15:20;99922.00;;;0.87;100.00
12172;BME280;6149;52.418;13.668;2022-11-18T03:17:59;99925.56;;;0.83;100.00
12172;BME280;6149;52.418;13.668;2022-11-18T03:20:35;99923.63;;;0.91;100.00
12172;BME280;6149;52.418;13.668;2022-11-18T03:23:05;99927.34;;;0.81;100.00
12172;BME280;6149;52.418;13.668;2022-11-18T03:25:36;99929.34;;;0.71;100.00
12172;BME280;6149;52.418;13.668;2022-11-18T03:28:08;99937.19;;;0.70;100.00
12172;BME280;6149;52.418;13.668;2022-11-18T03:30:42;99938.25;;;0.61;100.00
12172;BME280;6149;52.418;13.668;2022-11-18T03:33:17;99939.03;;;0.64;100.00
12172;BME280;6149;52.418;13.668;2022-11-18T03:35:48;99945.09;;;0.65;100.00
12172;BME280;6149;52.418;13.668;2022-11-18T03:38:20;99945.84;;;0.70;100.00
12172;BME280;6149;52.418;13.668;2022-11-18T03:40:54;99948.69;;;0.59;100.00
12172;BME280;6149;52.418;13.668;2022-11-18T03:43:25;99949.53;;;0.60;100.00
12172;BME280;6149;52.418;13.668;2022-11-18T03:45:59;99943.53;;;0.58;100.00
12172;BME280;6149;52.418;13.668;2022-11-18T03:48:31;99951.34;;;0.56;100.00
12172;BME280;6149;52.418;13.668;2022-11-18T03:51:05;99951.25;;;0.61;100.00
12172;BME280;6149;52.418;13.668;2022-11-18T03:53:36;99953.63;;;0.72;100.00
12172;BME280;6149;52.418;13.668;2022-11-18T03:56:08;99953.81;;;0.62;100.00
12172;BME280;6149;52.418;13.668;2022-11-18T03:58:39;99960.91;;;0.56;100.00
12172;BME280;6149;52.418;13.668;2022-11-18T04:01:12;99968.56;;;0.62;100.00
12172;BME280;6149;52.418;13.668;2022-11-18T04:03:42;99967.88;;;0.54;100.00
12172;BME280;6149;52.418;13.668;2022-11-18T04:06:17;99964.50;;;0.50;100.00
12172;BME280;6149;52.418;13.668;2022-11-18T04:08:50;99972.41;;;0.46;100.00
12172;BME280;6149;52.418;13.668;2022-11-18T04:11:23;99982.69;;;0.50;100.00
12172;BME280;6149;52.418;13.668;2022-11-18T04:14:11;99970.59;;;0.49;100.00
12172;BME280;6149;52.418;13.668;2022-11-18T04:16:42;99971.56;;;0.44;100.00
12172;BME280;6149;52.418;13.668;2022-11-18T04:19:09;99975.06;;;0.43;100.00
12172;BME280;6149;52.418;13.668;2022-11-18T04:21:36;99983.75;;;0.42;100.00
12172;BME280;6149;52.418;13.668;2022-11-18T04:24:04;99975.16;;;0.38;100.00
12172;BME280;6149;52.418;13.668;2022-11-18T04:26:31;99985.66;;;0.35;100.00
12172;BME280;6149;52.418;13.668;2022-11-18T04:28:57;99987.47;;;0.31;100.00
12172;BME280;6149;52.418;13.668;2022-11-18T04:31:25;99986.59;;;0.31;100.00
12172;BME280;6149;52.418;13.668;2022-11-18T04:33:53;99991.81;;;0.31;100.00
12172;BME280;6149;52.418;13.668;2022-11-18T04:36:19;99986.47;;;0.37;100.00
12172;BME280;6149;52.418;13.668;2022-11-18T04:38:46;99995.25;;;0.31;100.00
12172;BME280;6149;52.418;13.668;2022-11-18T04:41:13;99989.41;;;0.22;100.00
12172;BME280;6149;52.418;13.668;2022-11-18T04:43:40;99998.97;;;0.20;100.00
12172;BME280;6149;52.418;13.668;2022-11-18T04:46:07;99997.28;;;0.17;100.00
12172;BME280;6149;52.418;13.668;2022-11-18T04:48:34;99997.31;;;0.16;100.00
12172;BME280;6149;52.418;13.668;2022-11-18T04:51:03;100004.22;;;0.17;100.00
12172;BME280;6149;52.418;13.668;2022-11-18T04:53:29;100001.75;;;0.11;100.00
12172;BME280;6149;52.418;13.668;2022-11-18T04:56:03;100005.16;;;0.14;100.00
12172;BME280;6149;52.418;13.668;2022-11-18T04:58:31;100005.25;;;0.08;100.00
12172;BME280;6149;52.418;13.668;2022-11-18T05:00:57;100006.25;;;0.03;100.00
12172;BME280;6149;52.418;13.668;2022-11-18T05:03:24;100012.13;;;0.12;100.00
12172;BME280;6149;52.418;13.668;2022-11-18T05:05:51;100016.63;;;0.03;100.00
12172;BME280;6149;52.418;13.668;2022-11-18T05:08:18;100019.19;;;0.06;100.00
12172;BME280;6149;52.418;13.668;2022-11-18T05:10:45;100010.53;;;0.05;100.00
12172;BME280;6149;52.418;13.668;2022-11-18T05:13:12;100014.16;;;-0.02;100.00
12172;BME280;6149;52.418;13.668;2022-11-18T05:15:37;100021.78;;;0.06;100.00
12172;BME280;6149;52.418;13.668;2022-11-18T05:18:04;100026.00;;;0.11;100.00
12172;BME280;6149;52.418;13.668;2022-11-18T05:20:30;100022.81;;;-0.02;100.00
12172;BME280;6149;52.418;13.668;2022-11-18T05:22:57;100027.16;;;-0.02;100.00
12172;BME280;6149;52.418;13.668;2022-11-18T05:25:25;100013.34;;;-0.06;100.00
12172;BME280;6149;52.418;13.668;2022-11-18T05:27:51;100015.97;;;-0.07;100.00
12172;BME280;6149;52.418;13.668;2022-11-18T05:30:18;100022.00;;;-0.05;100.00
12172;BME280;6149;52.418;13.668;2022-11-18T05:32:44;100019.22;;;0.04;100.00
12172;BME280;6149;52.418;13.668;2022-11-18T05:35:11;100026.19;;;0.00;100.00
12172;BME280;6149;52.418;13.668;2022-11-18T05:37:37;100030.56;;;0.00;100.00
12172;BME280;6149;52.418;13.668;2022-11-18T05:40:05;100031.06;;;0.19;100.00
12172;BME280;6149;52.418;13.668;2022-11-18T05:42:34;100035.31;;;0.23;100.00
12172;BME280;6149;52.418;13.668;2022-11-18T05:45:18;100045.94;;;0.11;100.00
12172;BME280;6149;52.418;13.668;2022-11-18T05:47:45;100041.75;;;0.04;100.00
12172;BME280;6149;52.418;13.668;2022-11-18T05:50:28;100044.38;;;0.00;100.00
12172;BME280;6149;52.418;13.668;2022-11-18T05:52:55;100047.09;;;-0.04;100.00
12172;BME280;6149;52.418;13.668;2022-11-18T05:55:23;100051.38;;;0.00;100.00
12172;BME280;6149;52.418;13.668;2022-11-18T05:57:55;100060.06;;;-0.03;100.00
12172;BME280;6149;52.418;13.668;2022-11-18T06:00:22;100063.38;;;0.04;100.00
12172;BME280;6149;52.418;13.668;2022-11-18T06:02:51;100066.13;;;-0.02;100.00
12172;BME280;6149;52.418;13.668;2022-11-18T06:05:19;100069.59;;;-0.03;100.00
12172;BME280;6149;52.418;13.668;2022-11-18T06:07:47;100071.47;;;-0.10;100.00
12172;BME280;6149;52.418;13.668;2022-11-18T06:10:16;100063.78;;;-0.16;100.00
12172;BME280;6149;52.418;13.668;2022-11-18T06:12:47;100066.25;;;-0.08;100.00
12172;BME280;6149;52.418;13.668;2022-11-18T06:15:18;100071.53;;;-0.14;100.00
12172;BME280;6149;52.418;13.668;2022-11-18T06:17:50;100072.41;;;-0.15;100.00
12172;BME280;6149;52.418;13.668;2022-11-18T06:20:20;100086.25;;;-0.13;100.00
12172;BME280;6149;52.418;13.668;2022-11-18T06:22:48;100084.59;;;-0.19;100.00
12172;BME280;6149;52.418;13.668;2022-11-18T06:25:16;100086.22;;;-0.12;100.00
12172;BME280;6149;52.418;13.668;2022-11-18T06:27:44;100094.06;;;-0.15;100.00
12172;BME280;6149;52.418;13.668;2022-11-18T06:30:12;100099.13;;;-0.07;100.00
12172;BME280;6149;52.418;13.668;2022-11-18T06:32:41;100097.59;;;-0.19;100.00
12172;BME280;6149;52.418;13.668;2022-11-18T06:35:08;100103.81;;;-0.27;100.00
12172;BME280;6149;52.418;13.668;2022-11-18T06:37:35;100098.50;;;-0.21;100.00
12172;BME280;6149;52.418;13.668;2022-11-18T06:40:01;100109.06;;;-0.30;100.00
12172;BME280;6149;52.418;13.668;2022-11-18T06:42:29;100109.06;;;-0.32;100.00
12172;BME280;6149;52.418;13.668;2022-11-18T06:45:13;100119.44;;;-0.30;100.00
12172;BME280;6149;52.418;13.668;2022-11-18T06:47:47;100115.94;;;-0.28;100.00
12172;BME280;6149;52.418;13.668;2022-11-18T06:50:32;100122.81;;;-0.25;100.00
12172;BME280;6149;52.418;13.668;2022-11-18T06:52:59;100125.44;;;-0.27;100.00
12172;BME280;6149;52.418;13.668;2022-11-18T06:55:29;100127.09;;;-0.23;100.00
12172;BME280;6149;52.418;13.668;2022-11-18T06:57:55;100136.75;;;-0.31;100.00
12172;BME280;6149;52.418;13.668;2022-11-18T07:00:22;100137.00;;;-0.45;100.00
12172;BME280;6149;52.418;13.668;2022-11-18T07:02:50;100148.00;;;-0.30;100.00
12172;BME280;6149;52.418;13.668;2022-11-18T07:05:16;100142.19;;;-0.45;100.00
12172;BME280;6149;52.418;13.668;2022-11-18T07:07:43;100150.81;;;-0.43;100.00
12172;BME280;6149;52.418;13.668;2022-11-18T07:10:12;100146.53;;;-0.45;100.00
12172;BME280;6149;52.418;13.668;2022-11-18T07:12:39;100144.81;;;-0.46;100.00
12172;BME280;6149;52.418;13.668;2022-11-18T07:15:07;100142.22;;;-0.46;100.00
12172;BME280;6149;52.418;13.668;2022-11-18T07:17:34;100148.31;;;-0.47;100.00
12172;BME280;6149;52.418;13.668;2022-11-18T07:20:02;100144.78;;;-0.45;100.00
12172;BME280;6149;52.418;13.668;2022-11-18T07:22:29;100147.47;;;-0.51;100.00
12172;BME280;6149;52.418;13.668;2022-11-18T07:24:56;100158.69;;;-0.47;100.00
12172;BME280;6149;52.418;13.668;2022-11-18T07:27:22;100159.53;;;-0.47;100.00
12172;BME280;6149;52.418;13.668;2022-11-18T07:29:49;100156.91;;;-0.44;100.00
12172;BME280;6149;52.418;13.668;2022-11-18T07:32:15;100158.63;;;-0.43;100.00
12172;BME280;6149;52.418;13.668;2022-11-18T07:34:42;100167.09;;;-0.33;100.00
12172;BME280;6149;52.418;13.668;2022-11-18T07:37:10;100162.66;;;-0.26;100.00
12172;BME280;6149;52.418;13.668;2022-11-18T07:39:37;100166.09;;;-0.24;100.00
12172;BME280;6149;52.418;13.668;2022-11-18T07:42:03;100160.16;;;-0.32;100.00
12172;BME280;6149;52.418;13.668;2022-11-18T07:44:30;100169.66;;;-0.31;100.00
12172;BME280;6149;52.418;13.668;2022-11-18T07:46:56;100164.50;;;-0.33;100.00
12172;BME280;6149;52.418;13.668;2022-11-18T07:49:23;100162.81;;;-0.36;100.00
12172;BME280;6149;52.418;13.668;2022-11-18T07:51:49;100166.25;;;-0.34;100.00
12172;BME280;6149;52.418;13.668;2022-11-18T07:54:18;100174.88;;;-0.33;100.00
12172;BME280;6149;52.418;13.668;2022-11-18T07:56:44;100174.84;;;-0.30;100.00
12172;BME280;6149;52.418;13.668;2022-11-18T07:59:11;100175.75;;;-0.32;100.00
12172;BME280;6149;52.418;13.668;2022-11-18T08:01:37;100180.81;;;-0.23;100.00
12172;BME280;6149;52.418;13.668;2022-11-18T08:04:07;100173.97;;;-0.29;100.00
12172;BME280;6149;52.418;13.668;2022-11-18T08:06:35;100177.41;;;-0.28;100.00
12172;BME280;6149;52.418;13.668;2022-11-18T08:09:03;100187.81;;;-0.30;100.00
12172;BME280;6149;52.418;13.668;2022-11-18T08:11:31;100191.94;;;-0.15;100.00
12172;BME280;6149;52.418;13.668;2022-11-18T08:13:59;100194.72;;;-0.27;99.70
12172;BME280;6149;52.418;13.668;2022-11-18T08:16:26;100183.41;;;-0.25;99.91
12172;BME280;6149;52.418;13.668;2022-11-18T08:18:53;100195.56;;;-0.27;99.58
12172;BME280;6149;52.418;13.668;2022-11-18T08:21:21;100190.28;;;-0.21;99.93
12172;BME280;6149;52.418;13.668;2022-11-18T08:23:49;100210.03;;;-0.09;99.15
12172;BME280;6149;52.418;13.668;2022-11-18T08:26:16;100200.69;;;-0.22;98.07
12172;BME280;6149;52.418;13.668;2022-11-18T08:28:45;100204.13;;;-0.19;98.85
12172;BME280;6149;52.418;13.668;2022-11-18T08:31:13;100211.75;;;-0.10;97.20
12172;BME280;6149;52.418;13.668;2022-11-18T08:33:43;100207.53;;;-0.15;97.75
12172;BME280;6149;52.418;13.668;2022-11-18T08:36:14;100209.25;;;-0.16;98.30
12172;BME280;6149;52.418;13.668;2022-11-18T08:38:41;100210.06;;;-0.12;99.27
12172;BME280;6149;52.418;13.668;2022-11-18T08:41:10;100215.97;;;-0.03;97.42
12172;BME280;6149;52.418;13.668;2022-11-18T08:43:36;100216.19;;;-0.16;97.96
12172;BME280;6149;52.418;13.668;2022-11-18T08:46:04;100219.75;;;-0.22;95.74
12172;BME280;6149;52.418;13.668;2022-11-18T08:48:31;100223.16;;;-0.18;96.49
12172;BME280;6149;52.418;13.668;2022-11-18T08:50:58;100234.50;;;-0.24;96.02
12172;BME280;6149;52.418;13.668;2022-11-18T08:53:25;100239.72;;;-0.25;95.39
12172;BME280;6149;52.418;13.668;2022-11-18T08:55:54;100247.63;;;-0.33;96.21
12172;BME280;6149;52.418;13.668;2022-11-18T08:58:21;100245.03;;;-0.35;96.49
12172;BME280;6149;52.418;13.668;2022-11-18T09:00:48;100248.53;;;-0.37;97.95
12172;BME280;6149;52.418;13.668;2022-11-18T09:03:16;100250.25;;;-0.36;97.50
12172;BME280;6149;52.418;13.668;2022-11-18T09:05:45;100256.41;;;-0.40;97.67
12172;BME280;6149;52.418;13.668;2022-11-18T09:08:12;100249.47;;;-0.40;98.39
12172;BME280;6149;52.418;13.668;2022-11-18T09:10:39;100255.41;;;-0.33;98.57
12172;BME280;6149;52.418;13.668;2022-11-18T09:13:06;100266.69;;;-0.36;98.14
12172;BME280;6149;52.418;13.668;2022-11-18T09:15:32;100265.06;;;-0.40;99.10
12172;BME280;6149;52.418;13.668;2022-11-18T09:17:59;100261.63;;;-0.42;99.00
12172;BME280;6149;52.418;13.668;2022-11-18T09:20:27;100267.63;;;-0.38;97.89
12172;BME280;6149;52.418;13.668;2022-11-18T09:22:53;100274.47;;;-0.34;97.41
12172;BME280;6149;52.418;13.668;2022-11-18T09:25:20;100285.75;;;-0.37;97.78
12172;BME280;6149;52.418;13.668;2022-11-18T09:27:46;100278.91;;;-0.41;96.99
12172;BME280;6149;52.418;13.668;2022-11-18T09:30:13;100292.84;;;-0.46;96.97
12172;BME280;6149;52.418;13.668;2022-11-18T09:32:39;100289.19;;;-0.35;97.52
12172;BME280;6149;52.418;13.668;2022-11-18T09:35:06;100296.13;;;-0.35;96.46
12172;BME280;6149;52.418;13.668;2022-11-18T09:37:34;100300.41;;;-0.31;95.77
12172;BME280;6149;52.418;13.668;2022-11-18T09:40:00;100297.94;;;-0.39;95.42
12172;BME280;6149;52.418;13.668;2022-11-18T09:42:40;100310.94;;;-0.40;95.90
12172;BME280;6149;52.418;13.668;2022-11-18T09:45:19;100310.88;;;-0.37;96.85
12172;BME280;6149;52.418;13.668;2022-11-18T09:47:49;100311.00;;;-0.45;98.07
12172;BME280;6149;52.418;13.668;2022-11-18T09:50:17;100316.16;;;-0.42;97.45
12172;BME280;6149;52.418;13.668;2022-11-18T09:52:50;100323.09;;;-0.44;98.36
12172;BME280;6149;52.418;13.668;2022-11-18T09:55:26;100315.28;;;-0.42;97.70
12172;BME280;6149;52.418;13.668;2022-11-18T09:57:55;100319.47;;;-0.32;98.78
12172;BME280;6149;52.418;13.668;2022-11-18T10:00:25;100316.75;;;-0.24;98.83
12172;BME280;6149;52.418;13.668;2022-11-18T10:02:58;100316.88;;;-0.34;98.11
12172;BME280;6149;52.418;13.668;2022-11-18T10:05:28;100328.09;;;-0.31;97.29
12172;BME280;6149;52.418;13.668;2022-11-18T10:08:03;100327.19;;;-0.27;97.98
12172;BME280;6149;52.418;13.668;2022-11-18T10:10:43;100324.66;;;-0.34;98.37
12172;BME280;6149;52.418;13.668;2022-11-18T10:13:35;100320.19;;;-0.22;97.12
12172;BME280;6149;52.418;13.668;2022-11-18T10:16:21;100329.81;;;-0.30;97.40
12172;BME280;6149;52.418;13.668;2022-11-18T10:18:59;100334.19;;;-0.32;97.12
12172;BME280;6149;52.418;13.668;2022-11-18T10:21:39;100326.41;;;-0.34;97.45
12172;BME280;6149;52.418;13.668;2022-11-18T10:24:14;100324.66;;;-0.32;97.99
12172;BME280;6149;52.418;13.668;2022-11-18T10:26:44;100328.16;;;-0.36;98.20
12172;BME280;6149;52.418;13.668;2022-11-18T10:29:10;100331.63;;;-0.36;97.05
12172;BME280;6149;52.418;13.668;2022-11-18T10:31:38;100337.59;;;-0.27;97.47
12172;BME280;6149;52.418;13.668;2022-11-18T10:34:09;100332.38;;;-0.26;97.33
12172;BME280;6149;52.418;13.668;2022-11-18T10:36:39;100332.41;;;-0.29;97.31
12172;BME280;6149;52.418;13.668;2022-11-18T10:39:08;100335.91;;;-0.33;98.68
12172;BME280;6149;52.418;13.668;2022-11-18T10:41:41;100338.31;;;-0.16;96.67
12172;BME280;6149;52.418;13.668;2022-11-18T10:44:33;100335.91;;;-0.31;97.64
12172;BME280;6149;52.418;13.668;2022-11-18T10:47:16;100343.69;;;-0.31;99.57
12172;BME280;6149;52.418;13.668;2022-11-18T10:49:48;100343.69;;;-0.31;97.97
12172;BME280;6149;52.418;13.668;2022-11-18T10:52:15;100348.78;;;-0.24;96.87
12172;BME280;6149;52.418;13.668;2022-11-18T10:54:43;100351.50;;;-0.31;96.72
12172;BME280;6149;52.418;13.668;2022-11-18T10:57:14;100348.78;;;-0.22;96.70
12172;BME280;6149;52.418;13.668;2022-11-18T10:59:47;100346.25;;;-0.28;97.66
12172;BME280;6149;52.418;13.668;2022-11-18T11:02:17;100350.56;;;-0.27;97.24
12172;BME280;6149;52.418;13.668;2022-11-18T11:04:46;100360.88;;;-0.20;96.93
12172;BME280;6149;52.418;13.668;2022-11-18T11:07:15;100364.38;;;-0.24;97.71
12172;BME280;6149;52.418;13.668;2022-11-18T11:09:58;100370.38;;;-0.17;96.65
12172;BME280;6149;52.418;13.668;2022-11-18T11:12:26;100378.09;;;-0.13;95.37
12172;BME280;6149;52.418;13.668;2022-11-18T11:14:55;100367.84;;;-0.23;95.83
12172;BME280;6149;52.418;13.668;2022-11-18T11:17:28;100356.50;;;-0.18;96.87
12172;BME280;6149;52.418;13.668;2022-11-18T11:20:03;100353.94;;;-0.19;97.09
12172;BME280;6149;52.418;13.668;2022-11-18T11:22:32;100363.44;;;-0.18;97.28
12172;BME280;6149;52.418;13.668;2022-11-18T11:25:00;100373.63;;;-0.02;96.63
12172;BME280;6149;52.418;13.668;2022-11-18T11:27:42;100366.81;;;-0.10;94.88
12172;BME280;6149;52.418;13.668;2022-11-18T11:30:17;100361.56;;;-0.06;96.09
12172;BME280;6149;52.418;13.668;2022-11-18T11:33:12;100363.34;;;-0.09;96.11
12172;BME280;6149;52.418;13.668;2022-11-18T11:35:48;100363.28;;;-0.06;96.58
12172;BME280;6149;52.418;13.668;2022-11-18T11:38:29;100364.19;;;-0.09;97.09
12172;BME280;6149;52.418;13.668;2022-11-18T11:41:06;100363.38;;;-0.12;97.99
12172;BME280;6149;52.418;13.668;2022-11-18T11:43:48;100368.50;;;-0.08;95.53
12172;BME280;6149;52.418;13.668;2022-11-18T11:46:27;100366.81;;;-0.10;97.18
12172;BME280;6149;52.418;13.668;2022-11-18T11:49:09;100365.03;;;-0.08;97.25
12172;BME280;6149;52.418;13.668;2022-11-18T11:51:46;100370.16;;;-0.02;96.58
12172;BME280;6149;52.418;13.668;2022-11-18T11:54:35;100372.75;;;-0.02;96.43
12172;BME280;6149;52.418;13.668;2022-11-18T11:57:15;100371.81;;;0.02;96.01
12172;BME280;6149;52.418;13.668;2022-11-18T11:59:51;100373.53;;;0.03;94.88
12172;BME280;6149;52.418;13.668;2022-11-18T12:02:45;100368.34;;;0.03;95.93
12172;BME280;6149;52.418;13.668;2022-11-18T12:05:23;100388.19;;;0.09;95.30
12172;BME280;6149;52.418;13.668;2022-11-18T12:07:56;100385.50;;;0.15;95.65
12172;BME280;6149;52.418;13.668;2022-11-18T12:10:28;100391.66;;;0.08;95.34
12172;BME280;6149;52.418;13.668;2022-11-18T12:13:21;100403.75;;;0.12;95.06
12172;BME280;6149;52.418;13.668;2022-11-18T12:16:09;100401.97;;;0.14;94.86
12172;BME280;6149;52.418;13.668;2022-11-18T12:18:42;100402.84;;;0.14;93.93
12172;BME280;6149;52.418;13.668;2022-11-18T12:24:27;100413.28;;;0.11;92.31
12172;BME280;6149;52.418;13.668;2022-11-18T12:27:01;100412.28;;;0.20;90.11
12172;BME280;6149;52.418;13.668;2022-11-18T12:29:41;100418.34;;;0.22;89.65
12172;BME280;6149;52.418;13.668;2022-11-18T12:32:27;100425.34;;;0.15;90.77
12172;BME280;6149;52.418;13.668;2022-11-18T12:35:02;100420.13;;;0.17;91.68
12172;BME280;6149;52.418;13.668;2022-11-18T12:37:43;100425.22;;;0.26;89.15
12172;BME280;6149;52.418;13.668;2022-11-18T12:40:33;100426.91;;;0.28;88.80
12172;BME280;6149;52.418;13.668;2022-11-18T12:44:05;100428.63;;;0.31;89.88
12172;BME280;6149;52.418;13.668;2022-11-18T12:46:47;100429.53;;;0.27;89.50
12172;BME280;6149;52.418;13.668;2022-11-18T12:52:45;100430.47;;;0.23;87.56
12172;BME280;6149;52.418;13.668;2022-11-18T12:55:20;100431.28;;;0.26;86.53
12172;BME280;6149;52.418;13.668;2022-11-18T12:57:50;100445.28;;;0.15;85.57
12172;BME280;6149;52.418;13.668;2022-11-18T13:00:30;100422.84;;;0.08;86.57
12172;BME280;6149;52.418;13.668;2022-11-18T13:03:22;100434.19;;;0.02;87.28
12172;BME280;6149;52.418;13.668;2022-11-18T13:06:01;100438.50;;;0.05;86.27
12172;BME280;6149;52.418;13.668;2022-11-18T13:08:32;100447.28;;;-0.03;86.16
12172;BME280;6149;52.418;13.668;2022-11-18T13:11:06;100444.75;;;-0.10;84.19
12172;BME280;6149;52.418;13.668;2022-11-18T13:13:53;100449.22;;;-0.23;85.90
12172;BME280;6149;52.418;13.668;2022-11-18T13:16:35;100447.53;;;-0.27;86.13
12172;BME280;6149;52.418;13.668;2022-11-18T13:19:21;100446.66;;;-0.26;85.38
12172;BME280;6149;52.418;13.668;2022-11-18T13:21:52;100454.50;;;-0.29;85.21
12172;BME280;6149;52.418;13.668;2022-11-18T13:24:43;100457.09;;;-0.30;85.66